createdAt,value
2023-05-03T00:00:58.115Z,101221.23
2023-05-03T00:03:31.012Z,101226.72
2023-05-03T00:06:15.496Z,101224.57
2023-05-03T00:08:55.103Z,101224.68
2023-05-03T00:11:34.632Z,101224.13
2023-05-03T00:14:17.442Z,101220.59
2023-05-03T00:16:53.677Z,101220.27
2023-05-03T00:19:35.753Z,101220.80
2023-05-03T00:22:14.222Z,101218.71
2023-05-03T00:24:44.448Z,101214.20
2023-05-03T00:27:14.658Z,101214.73
2023-05-03T00:29:45.308Z,101211.19
2023-05-03T00:32:28.241Z,101209.55
2023-05-03T00:35:00.661Z,101210.45
2023-05-03T00:37:32.663Z,101210.27
2023-05-03T00:40:08.700Z,101212.15
2023-05-03T00:43:01.262Z,101215.38
2023-05-03T00:45:46.849Z,101216.02
2023-05-03T00:48:22.295Z,101215.91
2023-05-03T00:50:54.750Z,101220.27
2023-05-03T00:53:50.461Z,101222.89
2023-05-03T00:56:37.830Z,101223.63
2023-05-03T00:59:17.240Z,101225.64
2023-05-03T01:01:53.977Z,101220.61
2023-05-03T01:04:24.572Z,101214.62
2023-05-03T01:07:04.909Z,101208.55
2023-05-03T01:09:43.710Z,101215.46
2023-05-03T01:12:44.654Z,101219.44
2023-05-03T01:15:39.568Z,101216.80
2023-05-03T01:18:25.041Z,101219.88
2023-05-03T01:21:03.441Z,101226.88
2023-05-03T01:24:05.430Z,101229.67
2023-05-03T01:26:42.479Z,101232.45
2023-05-03T01:29:18.246Z,101238.73
2023-05-03T01:32:07.687Z,101244.28
2023-05-03T01:35:08.562Z,101246.56
2023-05-03T01:37:43.485Z,101250.83
2023-05-03T01:40:53.129Z,101250.92
2023-05-03T01:43:18.851Z,101253.58
2023-05-03T01:45:53.791Z,101258.46
2023-05-03T01:48:40.160Z,101260.42
2023-05-03T01:51:15.635Z,101258.33
2023-05-03T01:53:52.387Z,101259.92
2023-05-03T01:56:29.693Z,101262.56
2023-05-03T01:59:00.226Z,101266.80
2023-05-03T02:01:39.518Z,101265.27
2023-05-03T02:04:12.044Z,101265.78
2023-05-03T02:06:45.135Z,101263.27
2023-05-03T02:09:17.173Z,101262.96
2023-05-03T02:11:49.966Z,101260.35
2023-05-03T02:14:30.226Z,101261.42
2023-05-03T02:17:05.409Z,101262.54
2023-05-03T02:19:41.528Z,101258.48
2023-05-03T02:22:16.754Z,101256.27
2023-05-03T02:24:48.107Z,101262.02
2023-05-03T02:27:22.625Z,101262.56
2023-05-03T02:29:53.776Z,101261.21
2023-05-03T02:32:26.290Z,101264.12
2023-05-03T02:34:56.770Z,101264.40
2023-05-03T02:37:33.452Z,101265.48
2023-05-03T02:40:10.125Z,101266.65
2023-05-03T02:42:47.497Z,101265.66
2023-05-03T02:45:20.889Z,101268.98
2023-05-03T02:47:55.462Z,101273.91
2023-05-03T02:50:30.049Z,101273.29
2023-05-03T02:53:04.877Z,101275.56
2023-05-03T02:55:45.136Z,101277.72
2023-05-03T02:58:16.167Z,101279.85
2023-05-03T03:00:49.976Z,101281.02
2023-05-03T03:03:24.367Z,101284.09
2023-05-03T03:09:00.571Z,101290.55
2023-05-03T03:11:40.227Z,101294.77
2023-05-03T03:14:13.771Z,101296.01
2023-05-03T03:16:48.219Z,101296.92
2023-05-03T03:19:23.576Z,101300.36
2023-05-03T03:21:57.380Z,101305.51
2023-05-03T03:24:33.537Z,101306.95
2023-05-03T03:27:18.403Z,101308.06
2023-05-03T03:29:53.847Z,101315.61
2023-05-03T03:32:31.117Z,101317.52
2023-05-03T03:35:10.882Z,101317.56
2023-05-03T03:37:50.101Z,101320.33
2023-05-03T03:40:22.788Z,101320.37
2023-05-03T03:42:55.991Z,101320.32
2023-05-03T03:45:30.092Z,101321.11
2023-05-03T03:48:05.963Z,101320.58
2023-05-03T03:50:48.667Z,101315.15
2023-05-03T03:53:18.982Z,101316.62
2023-05-03T03:55:55.657Z,101326.00
2023-05-03T03:58:30.498Z,101326.70
2023-05-03T04:01:03.493Z,101327.23
2023-05-03T04:03:35.824Z,101331.48
2023-05-03T04:06:08.127Z,101340.91
2023-05-03T04:08:50.616Z,101340.20
2023-05-03T04:11:27.718Z,101344.90
2023-05-03T04:14:02.112Z,101347.17
2023-05-03T04:16:35.340Z,101353.59
2023-05-03T04:19:10.356Z,101357.31
2023-05-03T04:21:48.967Z,101362.25
2023-05-03T04:24:22.566Z,101363.08
2023-05-03T04:27:01.906Z,101361.37
2023-05-03T04:29:41.030Z,101365.98
2023-05-03T04:32:16.388Z,101366.23
2023-05-03T04:34:54.034Z,101370.63
2023-05-03T04:37:26.125Z,101371.45
2023-05-03T04:40:05.302Z,101370.84
2023-05-03T04:42:39.976Z,101376.86
2023-05-03T04:45:15.401Z,101379.29
2023-05-03T04:47:53.590Z,101380.77
2023-05-03T04:50:30.535Z,101383.58
2023-05-03T04:53:01.968Z,101384.57
2023-05-03T04:55:33.931Z,101386.52
2023-05-03T04:58:06.407Z,101388.98
2023-05-03T05:00:37.964Z,101392.45
2023-05-03T05:03:22.388Z,101395.52
2023-05-03T05:05:53.348Z,101399.71
2023-05-03T05:08:28.330Z,101403.54
2023-05-03T05:11:17.139Z,101409.02
2023-05-03T05:13:54.226Z,101414.15
2023-05-03T05:16:34.348Z,101409.64
2023-05-03T05:19:08.284Z,101416.13
2023-05-03T05:21:49.098Z,101423.37
2023-05-03T05:24:23.019Z,101427.36
2023-05-03T05:26:59.458Z,101428.63
2023-05-03T05:29:34.803Z,101431.85
2023-05-03T05:32:13.758Z,101437.34
2023-05-03T05:34:59.020Z,101437.16
2023-05-03T05:37:36.521Z,101436.71
2023-05-03T05:40:17.795Z,101438.02
2023-05-03T05:42:59.354Z,101441.31
2023-05-03T05:45:35.112Z,101440.71
2023-05-03T05:48:07.041Z,101437.84
2023-05-03T05:50:39.253Z,101442.81
2023-05-03T05:53:13.165Z,101448.48
2023-05-03T05:55:48.369Z,101449.85
2023-05-03T05:58:22.700Z,101453.46
2023-05-03T06:01:05.858Z,101450.99
2023-05-03T06:03:42.100Z,101457.51
2023-05-03T06:06:15.700Z,101456.31
2023-05-03T06:08:51.774Z,101466.88
2023-05-03T06:11:49.780Z,101465.79
2023-05-03T06:14:46.246Z,101464.70
2023-05-03T06:17:40.569Z,101473.75
2023-05-03T06:20:39.047Z,101479.84
2023-05-03T06:23:21.039Z,101483.48
2023-05-03T06:26:13.803Z,101483.94
2023-05-03T06:28:55.378Z,101481.40
2023-05-03T06:31:32.181Z,101483.90
2023-05-03T06:34:12.461Z,101483.16
2023-05-03T06:36:56.029Z,101483.70
2023-05-03T06:39:28.819Z,101484.70
2023-05-03T06:42:18.864Z,101489.95
2023-05-03T06:44:54.462Z,101490.27
2023-05-03T06:47:29.918Z,101487.69
2023-05-03T06:50:16.611Z,101488.38
2023-05-03T06:55:50.018Z,101493.63
2023-05-03T06:58:22.609Z,101491.70
2023-05-03T07:00:59.587Z,101490.98
2023-05-03T07:03:48.613Z,101493.96
2023-05-03T07:06:25.295Z,101493.17
2023-05-03T07:08:58.099Z,101492.81
2023-05-03T07:11:37.136Z,101493.41
2023-05-03T07:14:07.837Z,101488.78
2023-05-03T07:16:38.533Z,101490.09
2023-05-03T07:19:16.507Z,101488.84
2023-05-03T07:22:04.020Z,101486.08
2023-05-03T07:24:38.080Z,101490.56
2023-05-03T07:27:17.878Z,101487.36
2023-05-03T07:29:57.825Z,101489.27
2023-05-03T07:32:28.621Z,101489.51
2023-05-03T07:35:02.002Z,101486.90
2023-05-03T07:37:56.033Z,101490.27
2023-05-03T07:40:48.022Z,101493.09
2023-05-03T07:43:34.241Z,101493.80
2023-05-03T07:46:29.368Z,101491.55
2023-05-03T07:49:46.244Z,101492.05
2023-05-03T07:53:32.393Z,101501.48
2023-05-03T07:56:47.014Z,101500.49
2023-05-03T08:02:57.768Z,101497.20
2023-05-03T08:05:31.088Z,101499.63
2023-05-03T08:08:12.143Z,101494.04
2023-05-03T08:10:50.957Z,101493.18
2023-05-03T08:13:28.734Z,101494.86
2023-05-03T08:16:06.484Z,101493.42
2023-05-03T08:18:47.307Z,101496.40
2023-05-03T08:22:44.456Z,101494.54
2023-05-03T08:25:20.832Z,101498.27
2023-05-03T08:27:57.041Z,101501.73
2023-05-03T08:30:33.145Z,101502.40
2023-05-03T08:33:12.738Z,101505.70
2023-05-03T08:36:00.301Z,101507.80
2023-05-03T08:38:51.530Z,101502.05
2023-05-03T08:41:45.469Z,101509.80
2023-05-03T08:44:27.635Z,101510.96
2023-05-03T08:47:25.193Z,101513.52
2023-05-03T08:50:28.976Z,101511.40
2023-05-03T08:53:12.739Z,101518.08
2023-05-03T08:56:03.757Z,101519.85
2023-05-03T08:59:20.017Z,101524.48
2023-05-03T09:03:21.530Z,101529.86
2023-05-03T09:05:57.601Z,101527.57
2023-05-03T09:08:52.749Z,101528.43
2023-05-03T09:11:32.974Z,101528.58
2023-05-03T09:14:22.257Z,101525.92
2023-05-03T09:16:57.383Z,101529.52
2023-05-03T09:19:28.807Z,101528.53
2023-05-03T09:22:08.708Z,101523.70
2023-05-03T09:24:55.904Z,101523.20
2023-05-03T09:27:37.934Z,101521.15
2023-05-03T09:30:22.651Z,101526.32
2023-05-03T09:33:04.858Z,101525.09
2023-05-03T09:35:37.413Z,101526.39
2023-05-03T09:38:31.758Z,101527.59
2023-05-03T09:41:14.546Z,101527.27
2023-05-03T09:43:56.204Z,101526.09
2023-05-03T09:46:33.574Z,101520.70
2023-05-03T09:49:05.946Z,101518.35
2023-05-03T09:51:41.994Z,101516.62
2023-05-03T09:54:20.881Z,101513.98
2023-05-03T09:57:12.321Z,101512.80
2023-05-03T09:59:51.450Z,101512.88
2023-05-03T10:02:24.730Z,101509.92
2023-05-03T10:05:12.036Z,101508.65
2023-05-03T10:07:52.295Z,101505.84
2023-05-03T10:10:25.532Z,101507.75
2023-05-03T10:13:04.352Z,101502.27
2023-05-03T10:15:47.173Z,101497.08
2023-05-03T10:18:25.869Z,101500.48
2023-05-03T10:21:19.618Z,101500.75
2023-05-03T10:24:20.941Z,101496.71
2023-05-03T10:26:59.023Z,101493.78
2023-05-03T10:29:35.355Z,101503.81
2023-05-03T10:32:34.422Z,101505.39
2023-05-03T10:38:18.069Z,101498.61
2023-05-03T10:41:04.241Z,101499.88
2023-05-03T10:43:40.326Z,101496.44
2023-05-03T10:46:35.390Z,101498.45
2023-05-03T10:49:23.910Z,101500.00
2023-05-03T10:51:59.190Z,101505.41
2023-05-03T10:54:30.101Z,101500.83
2023-05-03T10:57:03.892Z,101507.04
2023-05-03T11:03:23.839Z,101502.69
2023-05-03T11:05:54.825Z,101503.59
2023-05-03T11:08:31.458Z,101506.83
2023-05-03T11:11:07.928Z,101510.25
2023-05-03T11:13:39.636Z,101507.16
2023-05-03T11:16:16.307Z,101515.34
2023-05-03T11:19:03.155Z,101514.30
2023-05-03T11:21:45.755Z,101518.23
2023-05-03T11:24:20.138Z,101514.77
2023-05-03T11:26:58.752Z,101510.05
2023-05-03T11:29:33.235Z,101511.36
2023-05-03T11:32:03.145Z,101509.79
2023-05-03T11:34:34.486Z,101505.38
2023-05-03T11:37:10.083Z,101506.39
2023-05-03T11:39:43.515Z,101506.16
2023-05-03T11:42:13.881Z,101507.98
2023-05-03T11:44:46.873Z,101507.27
2023-05-03T11:47:17.783Z,101501.52
2023-05-03T11:50:03.487Z,101504.16
2023-05-03T11:52:38.038Z,101505.75
2023-05-03T11:55:15.235Z,101507.58
2023-05-03T11:57:48.161Z,101504.02
2023-05-03T12:00:23.010Z,101503.48
2023-05-03T12:02:53.569Z,101496.66
2023-05-03T12:05:27.113Z,101498.27
2023-05-03T12:08:01.279Z,101497.92
2023-05-03T12:10:35.631Z,101497.38
2023-05-03T12:13:13.593Z,101496.52
2023-05-03T12:16:10.737Z,101497.36
2023-05-03T12:18:55.978Z,101496.67
2023-05-03T12:21:54.264Z,101495.08
2023-05-03T12:24:29.009Z,101493.52
2023-05-03T12:27:08.445Z,101493.86
2023-05-03T12:30:02.127Z,101487.18
2023-05-03T12:32:39.991Z,101486.17
2023-05-03T12:35:14.123Z,101490.19
2023-05-03T12:37:55.733Z,101488.17
2023-05-03T12:40:35.576Z,101481.33
2023-05-03T12:43:05.905Z,101484.95
2023-05-03T12:45:40.225Z,101484.02
2023-05-03T12:48:15.300Z,101481.63
2023-05-03T12:53:55.067Z,101479.89
2023-05-03T12:56:32.805Z,101476.37
2023-05-03T12:59:31.801Z,101479.33
2023-05-03T13:02:57.966Z,101472.36
2023-05-03T13:04:59.589Z,101470.05
2023-05-03T13:07:32.694Z,101474.29
2023-05-03T13:10:31.078Z,101471.13
2023-05-03T13:13:26.593Z,101467.54
2023-05-03T13:16:33.886Z,101470.23
2023-05-03T13:19:06.720Z,101465.08
2023-05-03T13:21:44.848Z,101465.59
2023-05-03T13:24:16.115Z,101468.32
2023-05-03T13:26:52.330Z,101463.08
2023-05-03T13:29:26.043Z,101457.69
2023-05-03T13:31:57.104Z,101458.83
2023-05-03T13:34:33.309Z,101455.85
2023-05-03T13:37:08.439Z,101453.16
2023-05-03T13:39:41.699Z,101457.17
2023-05-03T13:42:19.563Z,101455.53
2023-05-03T13:48:14.854Z,101451.30
2023-05-03T13:50:51.351Z,101448.97
2023-05-03T13:53:36.323Z,101450.76
2023-05-03T13:56:11.878Z,101446.33
2023-05-03T13:58:57.857Z,101439.81
2023-05-03T14:01:41.614Z,101439.04
2023-05-03T14:04:18.182Z,101439.80
2023-05-03T14:07:05.282Z,101431.92
2023-05-03T14:13:00.267Z,101429.90
2023-05-03T14:15:51.157Z,101425.41
2023-05-03T14:18:27.322Z,101424.63
2023-05-03T14:21:14.060Z,101425.27
2023-05-03T14:23:50.550Z,101427.23
2023-05-03T14:26:30.490Z,101424.20
2023-05-03T14:29:02.719Z,101425.11
2023-05-03T14:32:46.558Z,101431.09
2023-05-03T14:35:22.833Z,101428.04
2023-05-03T14:37:57.722Z,101428.90
2023-05-03T14:41:56.276Z,101426.65
2023-05-03T14:44:53.394Z,101426.75
2023-05-03T14:48:32.234Z,101424.23
2023-05-03T14:51:00.922Z,101427.20
2023-05-03T14:53:48.583Z,101431.91
2023-05-03T14:57:01.609Z,101431.25
2023-05-03T14:59:39.017Z,101432.33
2023-05-03T15:05:15.509Z,101436.56
2023-05-03T15:07:46.623Z,101438.73
2023-05-03T15:10:20.520Z,101439.73
2023-05-03T15:15:39.717Z,101437.06
2023-05-03T15:20:55.205Z,101430.52
2023-05-03T15:23:46.107Z,101427.80
2023-05-03T15:26:17.596Z,101428.60
2023-05-03T15:28:50.134Z,101430.80
2023-05-03T15:31:21.318Z,101430.82
2023-05-03T15:33:59.226Z,101431.61
2023-05-03T15:36:34.724Z,101429.27
2023-05-03T15:39:05.965Z,101423.78
2023-05-03T15:41:37.315Z,101420.95
2023-05-03T15:44:11.019Z,101421.91
2023-05-03T15:46:45.150Z,101426.23
2023-05-03T15:49:16.994Z,101423.73
2023-05-03T15:51:47.529Z,101422.81
2023-05-03T15:54:21.623Z,101426.11
2023-05-03T15:56:53.906Z,101425.91
2023-05-03T15:59:57.488Z,101423.39
2023-05-03T16:02:32.142Z,101424.88
2023-05-03T16:08:32.395Z,101419.95
2023-05-03T16:11:02.871Z,101424.11
2023-05-03T16:13:45.576Z,101426.39
2023-05-03T16:16:44.915Z,101426.87
2023-05-03T16:20:42.445Z,101424.67
2023-05-03T16:33:31.671Z,101426.41
2023-05-03T16:36:43.270Z,101426.98
2023-05-03T16:42:50.069Z,101424.05
2023-05-03T16:46:10.771Z,101424.64
2023-05-03T16:48:52.432Z,101422.39
2023-05-03T16:51:50.628Z,101421.42
2023-05-03T16:54:36.821Z,101423.77
2023-05-03T17:00:13.740Z,101424.24
2023-05-03T17:02:56.698Z,101424.61
2023-05-03T17:05:45.536Z,101420.41
2023-05-03T17:08:25.851Z,101422.46
2023-05-03T17:12:10.459Z,101426.05
2023-05-03T17:15:43.923Z,101423.55
2023-05-03T17:18:19.810Z,101421.95
2023-05-03T17:21:04.161Z,101424.56
2023-05-03T17:23:39.941Z,101424.91
2023-05-03T17:26:17.625Z,101423.35
2023-05-03T17:28:58.666Z,101421.23
2023-05-03T17:31:37.301Z,101419.58
2023-05-03T17:34:09.476Z,101419.16
2023-05-03T17:37:01.509Z,101421.20
2023-05-03T17:39:37.657Z,101423.09
2023-05-03T17:42:16.457Z,101421.83
2023-05-03T17:45:21.335Z,101422.55
2023-05-03T17:49:15.070Z,101419.63
2023-05-03T17:52:37.012Z,101416.15
2023-05-03T17:56:07.462Z,101420.53
2023-05-03T17:58:47.172Z,101424.67
2023-05-03T18:04:54.936Z,101424.44
2023-05-03T18:07:32.421Z,101426.84
2023-05-03T18:10:49.319Z,101429.95
2023-05-03T18:13:27.234Z,101427.81
2023-05-03T18:16:14.267Z,101426.06
2023-05-03T18:19:10.574Z,101431.02
2023-05-03T18:21:52.169Z,101432.30
2023-05-03T18:28:43.521Z,101438.25
2023-05-03T18:36:13.246Z,101446.70
2023-05-03T18:38:53.708Z,101450.98
2023-05-03T18:41:56.805Z,101453.08
2023-05-03T18:44:49.036Z,101451.09
2023-05-03T18:47:42.352Z,101451.94
2023-05-03T18:50:51.223Z,101451.95
2023-05-03T18:54:07.126Z,101459.78
2023-05-03T18:57:24.995Z,101465.42
2023-05-03T19:00:42.954Z,101456.93
2023-05-03T19:03:54.300Z,101463.18
2023-05-03T19:07:12.040Z,101462.64
2023-05-03T19:09:57.471Z,101461.02
2023-05-03T19:13:02.858Z,101466.79
2023-05-03T19:15:59.204Z,101467.31
2023-05-03T19:18:35.452Z,101467.11
2023-05-03T19:21:45.688Z,101464.03
2023-05-03T19:24:45.100Z,101462.46
2023-05-03T19:30:15.464Z,101461.12
2023-05-03T19:33:03.141Z,101459.68
2023-05-03T19:35:42.804Z,101461.20
2023-05-03T19:38:34.328Z,101460.77
2023-05-03T19:41:20.428Z,101467.30
2023-05-03T19:44:08.584Z,101466.23
2023-05-03T19:46:43.850Z,101464.59
2023-05-03T19:49:44.052Z,101464.87
2023-05-03T19:52:51.922Z,101468.58
2023-05-03T19:55:21.706Z,101470.76
2023-05-03T19:57:54.677Z,101468.39
2023-05-03T20:00:54.921Z,101467.11
2023-05-03T20:03:52.508Z,101469.23
2023-05-03T20:06:41.988Z,101468.07
2023-05-03T20:09:38.453Z,101465.98
2023-05-03T20:12:23.317Z,101467.77
2023-05-03T20:14:53.521Z,101464.95
2023-05-03T20:17:41.491Z,101468.14
2023-05-03T20:20:46.381Z,101465.86
2023-05-03T20:23:19.476Z,101462.75
2023-05-03T20:26:06.612Z,101460.63
2023-05-03T20:28:42.148Z,101462.27
2023-05-03T20:31:11.900Z,101461.70
2023-05-03T20:34:18.262Z,101463.38
2023-05-03T20:38:05.143Z,101458.95
2023-05-03T20:41:26.982Z,101460.74
2023-05-03T20:43:56.062Z,101468.04
2023-05-03T20:46:26.976Z,101471.42
2023-05-03T20:48:58.452Z,101465.14
2023-05-03T20:51:36.236Z,101469.90
2023-05-03T20:54:09.363Z,101475.21
2023-05-03T20:56:38.464Z,101473.90
2023-05-03T20:59:07.320Z,101474.65
2023-05-03T21:01:45.856Z,101474.18
2023-05-03T21:04:29.755Z,101475.98
2023-05-03T21:07:33.351Z,101472.64
2023-05-03T21:10:43.584Z,101469.79
2023-05-03T21:13:44.574Z,101469.91
2023-05-03T21:16:44.829Z,101469.15
2023-05-03T21:19:40.648Z,101465.40
2023-05-03T21:29:00.357Z,101457.45
2023-05-03T21:32:16.048Z,101457.46
2023-05-03T21:35:04.236Z,101454.89
2023-05-03T21:37:38.602Z,101456.11
2023-05-03T21:41:05.356Z,101460.64
2023-05-03T21:44:03.940Z,101461.13
2023-05-03T21:46:52.473Z,101468.97
2023-05-03T21:49:42.368Z,101467.10
2023-05-03T21:53:03.055Z,101470.64
2023-05-03T21:55:47.519Z,101468.44
2023-05-03T21:58:50.410Z,101467.30
2023-05-03T22:01:26.588Z,101465.78
2023-05-03T22:03:55.707Z,101467.52
2023-05-03T22:06:24.471Z,101466.66
2023-05-03T22:08:54.662Z,101462.85
2023-05-03T22:11:26.623Z,101464.08
2023-05-03T22:14:07.483Z,101460.85
2023-05-03T22:16:51.240Z,101461.77
2023-05-03T22:19:22.999Z,101464.59
2023-05-03T22:21:56.895Z,101459.95
2023-05-03T22:24:42.965Z,101456.51
2023-05-03T22:27:17.210Z,101455.00
2023-05-03T22:29:46.432Z,101455.02
2023-05-03T22:32:18.872Z,101452.25
2023-05-03T22:34:48.274Z,101448.98
2023-05-03T22:37:19.746Z,101450.38
2023-05-03T22:39:49.256Z,101450.56
2023-05-03T22:42:21.142Z,101449.70
2023-05-03T22:44:54.840Z,101449.91
2023-05-03T22:47:25.060Z,101452.02
2023-05-03T22:49:54.934Z,101453.60
2023-05-03T22:52:24.129Z,101452.92
2023-05-03T22:55:11.663Z,101441.03
2023-05-03T22:57:43.315Z,101440.02
2023-05-03T23:00:13.646Z,101449.85
2023-05-03T23:02:44.043Z,101449.66
2023-05-03T23:05:13.580Z,101451.39
2023-05-03T23:07:47.087Z,101448.64
2023-05-03T23:10:20.682Z,101447.78
2023-05-03T23:12:50.241Z,101448.48
2023-05-03T23:15:19.774Z,101447.98
2023-05-03T23:17:48.930Z,101447.31
2023-05-03T23:20:22.589Z,101448.91
2023-05-03T23:22:51.878Z,101446.86
2023-05-03T23:25:22.416Z,101443.75
2023-05-03T23:27:51.801Z,101442.56
2023-05-03T23:30:22.644Z,101442.92
2023-05-03T23:32:53.467Z,101436.19
2023-05-03T23:35:23.802Z,101436.07
2023-05-03T23:37:56.796Z,101436.60
2023-05-03T23:40:30.999Z,101437.46
2023-05-03T23:42:59.907Z,101434.70
2023-05-03T23:45:29.204Z,101435.75
2023-05-03T23:47:58.142Z,101438.02
2023-05-03T23:50:30.556Z,101434.23
2023-05-03T23:52:59.446Z,101435.63
2023-05-03T23:55:28.840Z,101432.88
2023-05-03T23:57:57.836Z,101432.89
